Airfield :
LOGIN :

Register | Disclaimer

   EN    FR    IT 

 










Legend :    VFR   Marginal VFR   IFR   Intensive IFR   Very Intensive IFR
Visi :
Ceiling :
>= 8 km
>= 3000ft
5 to 8 km
1000 to 3000 ft
1500m to 5 km
500 to 1000 ft
800 to 1500m
200 to 500 ft
< 800m
< 200 ft
Symbols :   Thunderstorms  Fog  Heavy snow  Heavy precipitations  Wind > 20 kt
SIGMETs :     Misc.  Thunderstorms  Icing  Turbulence  Mountain Waves  Volcanic Ashes






- Airport Elevation : 194 ft
- IATA code : LME


LFRM - Le Mans

CURRENT METAR :
  • 231930Z AUTO 24004KT 190V290 CAVOK 25/20 Q1006 TEMPO TSRA BKN030CB

EXPIRED METARs :
  • 231900Z AUTO 23007KT 180V260 CAVOK 26/20 Q1007 TEMPO TSRA BKN030CB
  • 231830Z AUTO 22009KT 180V260 CAVOK 27/19 Q1007 TEMPO TSRA BKN030CB
  • 231800Z AUTO 21008KT 160V260 CAVOK 28/20 Q1007 TEMPO TSRA BKN030CB
  • 231730Z AUTO 11004KT 080V140 CAVOK 30/16 Q1006 TEMPO TSRA BKN030CB
  • 231700Z AUTO 11003KT 070V160 CAVOK 30/16 Q1006 TEMPO 11015G25KT 3000 TSRA BKN030CB

Expired Forecast.



MET'MAP, your aeronautical weather chart ! - Copyright ORBIFLY December 2007 - Disclaimer

ORBIFLY MET'MAP TEAM :

Programming & Development : Alexandra Zaïnal
Concept & original design : Baudouin d'Aumeries
Assistance for programming : Marc-Olivier Méhu
Technical & hardware support : Manuel Goepfert

Contact : metmap@orbifly.com




SOURCES & CREDITS :

   NOAA